SBKP/CPQ METAR and TAF weather

Enter ICAO airport designator
Station Type Date Time Source
SBKP METAR 2021/09/27 07:00 UTC NOAA

SBKP 270700Z 15005KT CAVOK 20/14 Q1020


Station Type Date Time Source
SBKP Decoded METAR 2021/09/27 07:00 UTC NOAA

Campinas Aeroporto , Brazil (SBKP) 23-00S 047-08W 661M
Sep 27, 2021 - 03:00 AM EDT / 2021.09.27 0700 UTC
Wind: from the SSE (150 degrees) at 6 MPH (5 KT):0
Visibility: greater than 7 mile(s):0
Temperature: 68 F (20 C)
Dew Point: 57 F (14 C)
Relative Humidity: 68%
Pressure (altimeter): 30.12 in. Hg (1020 hPa)
ob: SBKP 270700Z 15005KT CAVOK 20/14 Q1020
cycle: 7

Station Type Date Time Source
SBKP TAF 2021/09/27 06:06 UTC NOAA

TAF SBKP 270400Z 2706/2806 12008KT 8000 NSC TN18/2709Z TX33/2718Z PROB30 2709/2711 05005KT 5000 HZ
BECMG 2714/2716 30004KT 9999 FEW040
TEMPO 2718/2721 24005KT 7000 TS SCT030 FEW040CB
BECMG 2721/2723 14010KT CAVOK
RMK PGD

Example: see airport list